AirNav   Bose Proflight and A20 aviation headeets
 
 1445 users online  

NK26 Old Forge Airport
Old Forge, New York, USA

GOING TO OLD FORGE?


FAA INFORMATION EFFECTIVE 31 JANUARY 2019

Location

FAA Identifier: NK26
Lat/Long: 43-43-30.6600N / 074-58-34.3800W
43-43.511000N / 074-58.573000W
43.7251833 / -74.9762167
(estimated)
Elevation: 1753 ft. / 534 m (estimated)
From city: 1 mile N of OLD FORGE, NY
Time zone: UTC -5 (UTC -4 during Daylight Saving Time)
Zip code: 13420

Airport Operations

Airport use: Private use. Permission required prior to landing
Activation date: 10/2007
Control tower: no
ARTCC: BOSTON CENTER
FSS: BUFFALO FLIGHT SERVICE STATION
Attendance: UNATNDD
Wind indicator: yes
Segmented circle: no

Nearby radio navigation aids

NDB name  Hdg/Dist  Freq  Var  ID
DRUM135/38.925713WGTB --. - -...

Airport Services

Runway Information

Runway 9/27

Dimensions: 3200 x 100 ft. / 975 x 30 m
Surface: turf
RUNWAY 9  RUNWAY 27
Traffic pattern: leftleft
Obstructions: 50 ft. trees, 300 ft. from runway50 ft. trees, 300 ft. from runway

Airport Ownership and Management from official FAA records

Ownership: Publicly-owned
Owner: OLD FORGE AIRPORT HOA, INC.
PO BOX 158
OLD FORGE, NY 13420
Phone (315) 256-7476
Manager: DAN RIVET
PO BOX 158
OLD FORGE, NY 13420
Phone 315-725-8464

Airport Operational Statistics

Aircraft based on the field: 3
Single engine airplanes: 3
    

Additional Remarks

FOR WINTER CONDITIONS & SNOW REMOVAL CALL 315-725-8464.
PPR FOR LANDING CALL 315-725-8464.
DEER ON & INVOF ARPT.

Instrument Procedures

There are no published instrument procedures at NK26.

Some nearby airports with instrument procedures:

K09 - Piseco Airport (26 nm SE)
KRME - Griffiss International Airport (35 nm SW)
KGTB - Wheeler-Sack Army Airfield (38 nm NW)
KART - Watertown International Airport (48 nm W)
KSLK - Adirondack Regional Airport (52 nm NE)
 
Loc | Ops | Rwys | IFR | FBO | Links
Com | Nav | Svcs | Stats | Notes
Aerial photo
WARNING: Photo may not be current or correct
Aerial photo of NK26 (Old Forge Airport)
Taken in August 2004

Do you have a better or more recent aerial photo of Old Forge Airport that you would like to share? If so, please send us your photo.

 
Sectional chart

 
Airport distance calculator
Flying to Old Forge Airport? Find the distance to fly.

From to NK26

Sunrise and sunset
Times for 22-Feb-2019
 Local
(UTC-5)
 Zulu
(UTC)
Morning civil twilight06:2011:20
Sunrise06:4911:49
Sunset17:3822:38
Evening civil twilight18:0723:07

Current date and time
Zulu (UTC)  22-Feb-2019 15:30:53
Local (UTC-5)  22-Feb-2019 10:30:53
 
METAR
KRME 
36nm SW 
221453Z 28006KT 10SM OVC042 M01/M06 A3039 RMK AO2 SLP296 T10061056 51023 $
KGTB 
37nm NW 
221456Z AUTO 01006KT 10SM OVC024 M02/M09 A3039 RMK AO2 SLP301 T10241089 51028
KART 
48nm W 
221456Z AUTO 02006KT 10SM OVC043 M01/M07 A3042 RMK AO2 SLP305 T10111067 51028
TAF
KRME 
36nm SW 
221120Z 2212/2312 28007KT P6SM BKN035 TEMPO 2212/2215 OVC025 FM222200 VRB03KT P6SM SCT100
KGTB 
37nm NW 
212350Z 2123/2223 23012G18KT 9999 SCT014 OVC029 QNH2988INS TEMPO 2123/2201 23025G30KT -FZDZ 660003 520003 BECMG 2201/2202 24015G20KT 9999 BKN030 QNH2993INS BECMG 2205/2206 32006KT 9999 BKN020 QNH3014INS BECMG 2217/2218 29006KT 9999 SCT020 BKN030 QNH3036INS TX01/2123Z TNM04/2212Z
NOTAMs
Click for the latest NOTAMs
NOTAMs are issued by the DoD/FAA and will open in a separate window not controlled by AirNav.

 

 
 

Would you like to see your business listed on this page?

 If your business provides an interesting product or service to pilots, flight crews, aircraft, or users of the Old Forge Airport, you should consider listing it here.  To start the listing process, click on the button below
 
Add a business
 

Other Pages about Old Forge Airport

Update a link
 
Copyright © AirNav, LLC. All rights reserved. Privacy Policy  Contact